sensor_id;sensor_type;location;lat;lon;timestamp;P1;durP1;ratioP1;P2;durP2;ratioP2
42296;SDS011;28985;47.456;19.016;2022-08-19T00:01:38;119.20;;;114.32;;
42296;SDS011;28985;47.456;19.016;2022-08-19T00:04:07;120.85;;;116.05;;
42296;SDS011;28985;47.456;19.016;2022-08-19T00:06:36;117.95;;;113.20;;
42296;SDS011;28985;47.456;19.016;2022-08-19T00:09:06;111.88;;;107.20;;
42296;SDS011;28985;47.456;19.016;2022-08-19T00:11:34;114.35;;;109.45;;
42296;SDS011;28985;47.456;19.016;2022-08-19T00:14:04;105.78;;;101.50;;
42296;SDS011;28985;47.456;19.016;2022-08-19T00:16:32;97.95;;;93.85;;
42296;SDS011;28985;47.456;19.016;2022-08-19T00:18:59;78.40;;;75.03;;
42296;SDS011;28985;47.456;19.016;2022-08-19T00:21:26;75.75;;;72.45;;
42296;SDS011;28985;47.456;19.016;2022-08-19T00:23:53;73.78;;;70.45;;
42296;SDS011;28985;47.456;19.016;2022-08-19T00:26:24;73.88;;;70.50;;
42296;SDS011;28985;47.456;19.016;2022-08-19T00:28:53;64.90;;;61.78;;
42296;SDS011;28985;47.456;19.016;2022-08-19T00:31:20;63.35;;;60.53;;
42296;SDS011;28985;47.456;19.016;2022-08-19T00:33:47;59.72;;;56.83;;
42296;SDS011;28985;47.456;19.016;2022-08-19T00:36:16;56.83;;;54.33;;
42296;SDS011;28985;47.456;19.016;2022-08-19T00:38:43;56.83;;;53.85;;
42296;SDS011;28985;47.456;19.016;2022-08-19T00:41:14;50.45;;;47.95;;
42296;SDS011;28985;47.456;19.016;2022-08-19T00:43:43;58.47;;;55.67;;
42296;SDS011;28985;47.456;19.016;2022-08-19T00:46:27;54.97;;;52.38;;
42296;SDS011;28985;47.456;19.016;2022-08-19T00:48:54;54.28;;;51.70;;
42296;SDS011;28985;47.456;19.016;2022-08-19T00:51:24;55.03;;;52.50;;
42296;SDS011;28985;47.456;19.016;2022-08-19T00:53:54;57.13;;;54.33;;
42296;SDS011;28985;47.456;19.016;2022-08-19T00:56:23;53.58;;;50.97;;
42296;SDS011;28985;47.456;19.016;2022-08-19T00:58:49;54.03;;;51.42;;
42296;SDS011;28985;47.456;19.016;2022-08-19T01:01:16;54.25;;;51.55;;
42296;SDS011;28985;47.456;19.016;2022-08-19T01:03:43;53.50;;;50.72;;
42296;SDS011;28985;47.456;19.016;2022-08-19T01:06:24;50.42;;;48.15;;
42296;SDS011;28985;47.456;19.016;2022-08-19T01:08:52;53.10;;;50.60;;
42296;SDS011;28985;47.456;19.016;2022-08-19T01:11:19;48.53;;;46.13;;
42296;SDS011;28985;47.456;19.016;2022-08-19T01:13:46;52.13;;;49.38;;
42296;SDS011;28985;47.456;19.016;2022-08-19T01:16:16;49.33;;;46.92;;
42296;SDS011;28985;47.456;19.016;2022-08-19T01:18:45;45.40;;;43.03;;
42296;SDS011;28985;47.456;19.016;2022-08-19T01:21:22;51.90;;;49.60;;
42296;SDS011;28985;47.456;19.016;2022-08-19T01:24:02;43.40;;;41.13;;
42296;SDS011;28985;47.456;19.016;2022-08-19T01:26:29;42.95;;;40.60;;
42296;SDS011;28985;47.456;19.016;2022-08-19T01:28:58;47.60;;;45.08;;
42296;SDS011;28985;47.456;19.016;2022-08-19T01:31:30;48.58;;;46.17;;
42296;SDS011;28985;47.456;19.016;2022-08-19T01:33:58;46.92;;;44.70;;
42296;SDS011;28985;47.456;19.016;2022-08-19T01:36:34;46.03;;;43.42;;
42296;SDS011;28985;47.456;19.016;2022-08-19T01:39:06;41.95;;;39.72;;
42296;SDS011;28985;47.456;19.016;2022-08-19T01:41:35;45.00;;;42.53;;
42296;SDS011;28985;47.456;19.016;2022-08-19T01:44:02;43.60;;;41.40;;
42296;SDS011;28985;47.456;19.016;2022-08-19T01:46:44;42.45;;;40.17;;
42296;SDS011;28985;47.456;19.016;2022-08-19T01:49:13;42.53;;;40.22;;
42296;SDS011;28985;47.456;19.016;2022-08-19T01:51:41;44.40;;;41.88;;
42296;SDS011;28985;47.456;19.016;2022-08-19T01:54:08;43.15;;;40.83;;
42296;SDS011;28985;47.456;19.016;2022-08-19T01:56:37;44.05;;;41.80;;
42296;SDS011;28985;47.456;19.016;2022-08-19T01:59:15;49.00;;;46.50;;
42296;SDS011;28985;47.456;19.016;2022-08-19T02:01:45;44.17;;;41.85;;
42296;SDS011;28985;47.456;19.016;2022-08-19T02:04:11;43.20;;;40.88;;
42296;SDS011;28985;47.456;19.016;2022-08-19T02:06:38;41.72;;;39.42;;
42296;SDS011;28985;47.456;19.016;2022-08-19T02:09:06;38.30;;;36.40;;
42296;SDS011;28985;47.456;19.016;2022-08-19T02:11:34;38.30;;;36.33;;
42296;SDS011;28985;47.456;19.016;2022-08-19T02:14:02;38.67;;;36.75;;
42296;SDS011;28985;47.456;19.016;2022-08-19T02:16:33;41.15;;;39.20;;
42296;SDS011;28985;47.456;19.016;2022-08-19T02:19:00;43.03;;;40.95;;
42296;SDS011;28985;47.456;19.016;2022-08-19T02:21:26;47.00;;;44.70;;
42296;SDS011;28985;47.456;19.016;2022-08-19T02:23:54;47.47;;;45.08;;
42296;SDS011;28985;47.456;19.016;2022-08-19T02:26:22;49.17;;;46.60;;
42296;SDS011;28985;47.456;19.016;2022-08-19T02:28:48;49.55;;;46.90;;
42296;SDS011;28985;47.456;19.016;2022-08-19T02:31:16;48.35;;;45.88;;
42296;SDS011;28985;47.456;19.016;2022-08-19T02:33:45;52.10;;;48.97;;
42296;SDS011;28985;47.456;19.016;2022-08-19T02:36:13;50.92;;;47.85;;
42296;SDS011;28985;47.456;19.016;2022-08-19T02:38:41;48.08;;;45.58;;
42296;SDS011;28985;47.456;19.016;2022-08-19T02:41:21;48.25;;;45.90;;
42296;SDS011;28985;47.456;19.016;2022-08-19T02:43:53;63.95;;;60.47;;
42296;SDS011;28985;47.456;19.016;2022-08-19T02:46:45;65.82;;;61.30;;
42296;SDS011;28985;47.456;19.016;2022-08-19T02:49:13;70.88;;;65.30;;
42296;SDS011;28985;47.456;19.016;2022-08-19T02:51:44;61.65;;;58.55;;
42296;SDS011;28985;47.456;19.016;2022-08-19T02:54:12;56.17;;;53.58;;
42296;SDS011;28985;47.456;19.016;2022-08-19T02:56:40;59.97;;;57.08;;
42296;SDS011;28985;47.456;19.016;2022-08-19T02:59:08;69.30;;;66.15;;
42296;SDS011;28985;47.456;19.016;2022-08-19T03:01:37;80.80;;;77.18;;
42296;SDS011;28985;47.456;19.016;2022-08-19T03:04:07;87.53;;;83.38;;
42296;SDS011;28985;47.456;19.016;2022-08-19T03:06:36;81.85;;;78.30;;
42296;SDS011;28985;47.456;19.016;2022-08-19T03:09:04;81.53;;;77.57;;
42296;SDS011;28985;47.456;19.016;2022-08-19T03:11:31;79.75;;;75.78;;
42296;SDS011;28985;47.456;19.016;2022-08-19T03:13:59;89.75;;;85.68;;
42296;SDS011;28985;47.456;19.016;2022-08-19T03:16:27;101.43;;;97.10;;
42296;SDS011;28985;47.456;19.016;2022-08-19T03:18:59;92.53;;;88.03;;
42296;SDS011;28985;47.456;19.016;2022-08-19T03:21:31;105.85;;;101.28;;
42296;SDS011;28985;47.456;19.016;2022-08-19T03:24:00;93.55;;;89.20;;
42296;SDS011;28985;47.456;19.016;2022-08-19T03:26:29;115.00;;;109.38;;
42296;SDS011;28985;47.456;19.016;2022-08-19T03:28:57;108.95;;;103.75;;
42296;SDS011;28985;47.456;19.016;2022-08-19T03:31:31;94.18;;;90.25;;
42296;SDS011;28985;47.456;19.016;2022-08-19T03:34:19;97.47;;;93.10;;
42296;SDS011;28985;47.456;19.016;2022-08-19T03:36:54;81.70;;;78.03;;
42296;SDS011;28985;47.456;19.016;2022-08-19T03:39:26;76.87;;;73.07;;
42296;SDS011;28985;47.456;19.016;2022-08-19T03:41:53;88.07;;;84.20;;
42296;SDS011;28985;47.456;19.016;2022-08-19T03:44:46;110.82;;;105.63;;
42296;SDS011;28985;47.456;19.016;2022-08-19T03:47:12;122.72;;;116.95;;
42296;SDS011;28985;47.456;19.016;2022-08-19T03:49:43;104.22;;;99.15;;
42296;SDS011;28985;47.456;19.016;2022-08-19T03:52:10;121.00;;;115.68;;
42296;SDS011;28985;47.456;19.016;2022-08-19T03:54:37;117.05;;;111.68;;
42296;SDS011;28985;47.456;19.016;2022-08-19T03:57:04;123.20;;;117.82;;
42296;SDS011;28985;47.456;19.016;2022-08-19T03:59:32;123.18;;;117.43;;
42296;SDS011;28985;47.456;19.016;2022-08-19T04:02:02;117.38;;;111.97;;
42296;SDS011;28985;47.456;19.016;2022-08-19T04:07:02;101.28;;;96.47;;
42296;SDS011;28985;47.456;19.016;2022-08-19T04:09:28;106.60;;;102.22;;
42296;SDS011;28985;47.456;19.016;2022-08-19T04:11:56;107.43;;;102.88;;
42296;SDS011;28985;47.456;19.016;2022-08-19T04:14:24;108.75;;;104.07;;
42296;SDS011;28985;47.456;19.016;2022-08-19T04:16:56;112.50;;;107.82;;
42296;SDS011;28985;47.456;19.016;2022-08-19T04:19:25;104.55;;;100.22;;
42296;SDS011;28985;47.456;19.016;2022-08-19T04:21:52;103.95;;;99.47;;
42296;SDS011;28985;47.456;19.016;2022-08-19T04:24:20;115.20;;;110.07;;
42296;SDS011;28985;47.456;19.016;2022-08-19T04:26:48;111.15;;;105.70;;
42296;SDS011;28985;47.456;19.016;2022-08-19T04:29:19;119.78;;;114.63;;
42296;SDS011;28985;47.456;19.016;2022-08-19T04:31:48;111.38;;;106.38;;
42296;SDS011;28985;47.456;19.016;2022-08-19T04:34:17;88.13;;;84.28;;
42296;SDS011;28985;47.456;19.016;2022-08-19T04:36:48;109.30;;;104.53;;
42296;SDS011;28985;47.456;19.016;2022-08-19T04:39:18;102.90;;;98.53;;
42296;SDS011;28985;47.456;19.016;2022-08-19T04:42:10;116.60;;;111.53;;
42296;SDS011;28985;47.456;19.016;2022-08-19T04:45:07;100.47;;;96.07;;
42296;SDS011;28985;47.456;19.016;2022-08-19T04:47:38;119.65;;;114.47;;
42296;SDS011;28985;47.456;19.016;2022-08-19T04:50:23;119.80;;;114.72;;
42296;SDS011;28985;47.456;19.016;2022-08-19T04:52:50;115.55;;;110.57;;
42296;SDS011;28985;47.456;19.016;2022-08-19T04:55:17;101.10;;;96.90;;
42296;SDS011;28985;47.456;19.016;2022-08-19T04:57:44;95.28;;;90.90;;
42296;SDS011;28985;47.456;19.016;2022-08-19T05:00:10;123.25;;;117.90;;
42296;SDS011;28985;47.456;19.016;2022-08-19T05:02:38;98.65;;;94.32;;
42296;SDS011;28985;47.456;19.016;2022-08-19T05:05:05;137.10;;;131.13;;
42296;SDS011;28985;47.456;19.016;2022-08-19T05:07:33;136.00;;;130.45;;
42296;SDS011;28985;47.456;19.016;2022-08-19T05:10:00;121.60;;;116.38;;
42296;SDS011;28985;47.456;19.016;2022-08-19T05:12:26;138.25;;;132.20;;
42296;SDS011;28985;47.456;19.016;2022-08-19T05:14:55;130.18;;;124.57;;
42296;SDS011;28985;47.456;19.016;2022-08-19T05:17:23;136.93;;;130.82;;
42296;SDS011;28985;47.456;19.016;2022-08-19T05:19:58;139.27;;;133.50;;
42296;SDS011;28985;47.456;19.016;2022-08-19T05:22:44;132.43;;;126.38;;
42296;SDS011;28985;47.456;19.016;2022-08-19T05:25:14;131.18;;;125.20;;
42296;SDS011;28985;47.456;19.016;2022-08-19T05:27:44;122.55;;;116.88;;
42296;SDS011;28985;47.456;19.016;2022-08-19T05:30:11;134.93;;;128.80;;
42296;SDS011;28985;47.456;19.016;2022-08-19T05:32:39;128.63;;;123.18;;
42296;SDS011;28985;47.456;19.016;2022-08-19T05:35:06;132.70;;;126.50;;
42296;SDS011;28985;47.456;19.016;2022-08-19T05:37:33;122.60;;;117.22;;
42296;SDS011;28985;47.456;19.016;2022-08-19T05:40:00;119.28;;;113.38;;
42296;SDS011;28985;47.456;19.016;2022-08-19T05:42:27;136.57;;;130.48;;
42296;SDS011;28985;47.456;19.016;2022-08-19T05:44:54;132.88;;;126.70;;
42296;SDS011;28985;47.456;19.016;2022-08-19T05:47:22;118.88;;;113.50;;
42296;SDS011;28985;47.456;19.016;2022-08-19T05:49:49;127.10;;;121.32;;
42296;SDS011;28985;47.456;19.016;2022-08-19T05:52:17;128.07;;;122.03;;
42296;SDS011;28985;47.456;19.016;2022-08-19T05:54:45;136.88;;;130.02;;
42296;SDS011;28985;47.456;19.016;2022-08-19T05:57:17;123.88;;;118.57;;
42296;SDS011;28985;47.456;19.016;2022-08-19T05:59:44;128.88;;;123.53;;
42296;SDS011;28985;47.456;19.016;2022-08-19T06:02:18;119.35;;;114.13;;
42296;SDS011;28985;47.456;19.016;2022-08-19T06:04:44;125.78;;;120.22;;
42296;SDS011;28985;47.456;19.016;2022-08-19T06:07:11;136.65;;;130.35;;
42296;SDS011;28985;47.456;19.016;2022-08-19T06:09:38;127.97;;;122.15;;
42296;SDS011;28985;47.456;19.016;2022-08-19T06:12:06;129.82;;;124.50;;
42296;SDS011;28985;47.456;19.016;2022-08-19T06:14:34;140.48;;;134.57;;
42296;SDS011;28985;47.456;19.016;2022-08-19T06:17:07;140.00;;;133.50;;
42296;SDS011;28985;47.456;19.016;2022-08-19T06:19:34;141.15;;;134.35;;
42296;SDS011;28985;47.456;19.016;2022-08-19T06:22:06;148.65;;;141.88;;
42296;SDS011;28985;47.456;19.016;2022-08-19T06:24:34;168.68;;;161.27;;
42296;SDS011;28985;47.456;19.016;2022-08-19T06:27:01;144.05;;;138.00;;
42296;SDS011;28985;47.456;19.016;2022-08-19T06:29:31;152.60;;;145.25;;
42296;SDS011;28985;47.456;19.016;2022-08-19T06:31:59;176.98;;;169.35;;
42296;SDS011;28985;47.456;19.016;2022-08-19T06:34:27;209.95;;;201.63;;
42296;SDS011;28985;47.456;19.016;2022-08-19T06:36:55;183.05;;;175.30;;
42296;SDS011;28985;47.456;19.016;2022-08-19T06:39:28;199.95;;;192.13;;
42296;SDS011;28985;47.456;19.016;2022-08-19T06:41:58;203.27;;;194.65;;
42296;SDS011;28985;47.456;19.016;2022-08-19T06:44:27;207.50;;;199.20;;
42296;SDS011;28985;47.456;19.016;2022-08-19T06:46:57;231.93;;;221.82;;
42296;SDS011;28985;47.456;19.016;2022-08-19T06:49:23;215.55;;;207.13;;
42296;SDS011;28985;47.456;19.016;2022-08-19T06:51:57;248.93;;;238.85;;
42296;SDS011;28985;47.456;19.016;2022-08-19T06:54:27;232.80;;;222.90;;
42296;SDS011;28985;47.456;19.016;2022-08-19T06:56:56;264.55;;;253.85;;
42296;SDS011;28985;47.456;19.016;2022-08-19T06:59:24;237.50;;;227.93;;
42296;SDS011;28985;47.456;19.016;2022-08-19T07:01:55;278.98;;;267.88;;
42296;SDS011;28985;47.456;19.016;2022-08-19T07:04:24;269.38;;;258.52;;
42296;SDS011;28985;47.456;19.016;2022-08-19T07:06:59;280.75;;;269.27;;
42296;SDS011;28985;47.456;19.016;2022-08-19T07:09:46;262.38;;;251.80;;
42296;SDS011;28985;47.456;19.016;2022-08-19T07:12:28;293.40;;;281.60;;
42296;SDS011;28985;47.456;19.016;2022-08-19T07:14:57;267.50;;;256.45;;
42296;SDS011;28985;47.456;19.016;2022-08-19T07:17:25;321.73;;;308.88;;
42296;SDS011;28985;47.456;19.016;2022-08-19T07:19:53;314.40;;;301.58;;
42296;SDS011;28985;47.456;19.016;2022-08-19T07:22:20;304.17;;;291.83;;
42296;SDS011;28985;47.456;19.016;2022-08-19T07:24:49;284.08;;;272.45;;
42296;SDS011;28985;47.456;19.016;2022-08-19T07:27:19;290.95;;;279.10;;
42296;SDS011;28985;47.456;19.016;2022-08-19T07:29:49;253.27;;;242.85;;
42296;SDS011;28985;47.456;19.016;2022-08-19T07:32:23;262.70;;;251.30;;
42296;SDS011;28985;47.456;19.016;2022-08-19T07:34:52;300.15;;;287.80;;
42296;SDS011;28985;47.456;19.016;2022-08-19T07:37:19;260.95;;;250.80;;
42296;SDS011;28985;47.456;19.016;2022-08-19T07:39:46;286.00;;;274.70;;
42296;SDS011;28985;47.456;19.016;2022-08-19T07:42:13;275.23;;;263.90;;
42296;SDS011;28985;47.456;19.016;2022-08-19T07:44:40;305.70;;;293.42;;
42296;SDS011;28985;47.456;19.016;2022-08-19T07:47:16;324.70;;;311.80;;
42296;SDS011;28985;47.456;19.016;2022-08-19T07:50:03;307.67;;;295.00;;
42296;SDS011;28985;47.456;19.016;2022-08-19T07:52:33;299.02;;;287.08;;
42296;SDS011;28985;47.456;19.016;2022-08-19T07:55:00;346.33;;;331.90;;
42296;SDS011;28985;47.456;19.016;2022-08-19T07:57:29;369.10;;;354.10;;
42296;SDS011;28985;47.456;19.016;2022-08-19T07:59:56;330.67;;;317.27;;
42296;SDS011;28985;47.456;19.016;2022-08-19T08:02:23;305.45;;;293.40;;
42296;SDS011;28985;47.456;19.016;2022-08-19T08:04:50;331.40;;;318.25;;
42296;SDS011;28985;47.456;19.016;2022-08-19T08:07:35;318.50;;;305.70;;
42296;SDS011;28985;47.456;19.016;2022-08-19T08:10:19;283.73;;;272.48;;
42296;SDS011;28985;47.456;19.016;2022-08-19T08:12:49;299.13;;;287.13;;
42296;SDS011;28985;47.456;19.016;2022-08-19T08:15:35;219.52;;;210.85;;
42296;SDS011;28985;47.456;19.016;2022-08-19T08:18:09;259.55;;;249.10;;
42296;SDS011;28985;47.456;19.016;2022-08-19T08:20:37;255.73;;;245.63;;
42296;SDS011;28985;47.456;19.016;2022-08-19T08:23:04;232.10;;;223.02;;
42296;SDS011;28985;47.456;19.016;2022-08-19T08:25:53;218.30;;;209.65;;
42296;SDS011;28985;47.456;19.016;2022-08-19T08:28:21;215.95;;;207.35;;
42296;SDS011;28985;47.456;19.016;2022-08-19T08:30:49;217.38;;;208.63;;
42296;SDS011;28985;47.456;19.016;2022-08-19T08:33:17;217.50;;;209.02;;
42296;SDS011;28985;47.456;19.016;2022-08-19T08:36:06;224.18;;;214.98;;
42296;SDS011;28985;47.456;19.016;2022-08-19T08:38:37;222.07;;;213.15;;
42296;SDS011;28985;47.456;19.016;2022-08-19T08:41:12;217.55;;;208.40;;
42296;SDS011;28985;47.456;19.016;2022-08-19T08:43:58;239.32;;;230.18;;
42296;SDS011;28985;47.456;19.016;2022-08-19T08:46:35;247.70;;;238.10;;
42296;SDS011;28985;47.456;19.016;2022-08-19T08:52:30;235.90;;;226.65;;
42296;SDS011;28985;47.456;19.016;2022-08-19T08:55:05;231.13;;;222.18;;
42296;SDS011;28985;47.456;19.016;2022-08-19T09:00:23;240.02;;;230.65;;
42296;SDS011;28985;47.456;19.016;2022-08-19T09:02:54;212.82;;;204.48;;
42296;SDS011;28985;47.456;19.016;2022-08-19T09:05:26;205.73;;;197.65;;
42296;SDS011;28985;47.456;19.016;2022-08-19T09:08:18;199.45;;;191.13;;
42296;SDS011;28985;47.456;19.016;2022-08-19T09:10:57;168.48;;;161.65;;
42296;SDS011;28985;47.456;19.016;2022-08-19T09:18:41;164.18;;;157.43;;
42296;SDS011;28985;47.456;19.016;2022-08-19T09:21:14;131.38;;;126.07;;
42296;SDS011;28985;47.456;19.016;2022-08-19T09:23:42;140.15;;;134.35;;
42296;SDS011;28985;47.456;19.016;2022-08-19T09:26:11;131.90;;;126.22;;
42296;SDS011;28985;47.456;19.016;2022-08-19T09:28:42;103.82;;;99.60;;
42296;SDS011;28985;47.456;19.016;2022-08-19T09:31:15;76.40;;;73.10;;
42296;SDS011;28985;47.456;19.016;2022-08-19T09:33:45;64.18;;;61.33;;
42296;SDS011;28985;47.456;19.016;2022-08-19T09:36:14;65.03;;;62.03;;
42296;SDS011;28985;47.456;19.016;2022-08-19T09:38:58;60.22;;;57.45;;
42296;SDS011;28985;47.456;19.016;2022-08-19T09:41:27;58.95;;;56.25;;
42296;SDS011;28985;47.456;19.016;2022-08-19T09:43:55;58.97;;;56.45;;
42296;SDS011;28985;47.456;19.016;2022-08-19T09:46:25;56.50;;;53.92;;
42296;SDS011;28985;47.456;19.016;2022-08-19T09:48:56;58.33;;;55.88;;
42296;SDS011;28985;47.456;19.016;2022-08-19T09:51:31;59.63;;;56.83;;
42296;SDS011;28985;47.456;19.016;2022-08-19T09:54:01;59.95;;;57.35;;
42296;SDS011;28985;47.456;19.016;2022-08-19T09:56:30;60.45;;;57.97;;
42296;SDS011;28985;47.456;19.016;2022-08-19T09:58:59;62.38;;;59.67;;
42296;SDS011;28985;47.456;19.016;2022-08-19T10:01:28;58.08;;;55.58;;
42296;SDS011;28985;47.456;19.016;2022-08-19T10:03:57;55.85;;;53.55;;
42296;SDS011;28985;47.456;19.016;2022-08-19T10:06:25;55.47;;;53.28;;
42296;SDS011;28985;47.456;19.016;2022-08-19T10:09:12;52.97;;;50.67;;
42296;SDS011;28985;47.456;19.016;2022-08-19T10:11:40;48.47;;;46.20;;
42296;SDS011;28985;47.456;19.016;2022-08-19T10:14:19;42.63;;;40.33;;
42296;SDS011;28985;47.456;19.016;2022-08-19T10:16:48;37.83;;;36.22;;
42296;SDS011;28985;47.456;19.016;2022-08-19T10:19:18;37.63;;;35.80;;
42296;SDS011;28985;47.456;19.016;2022-08-19T10:21:51;32.60;;;30.80;;
42296;SDS011;28985;47.456;19.016;2022-08-19T10:24:18;25.40;;;23.65;;
42296;SDS011;28985;47.456;19.016;2022-08-19T10:26:46;27.08;;;25.77;;
42296;SDS011;28985;47.456;19.016;2022-08-19T10:29:25;25.20;;;24.00;;
42296;SDS011;28985;47.456;19.016;2022-08-19T10:31:59;26.73;;;25.30;;
42296;SDS011;28985;47.456;19.016;2022-08-19T10:34:29;25.73;;;24.45;;
42296;SDS011;28985;47.456;19.016;2022-08-19T10:36:56;26.50;;;25.05;;
42296;SDS011;28985;47.456;19.016;2022-08-19T10:39:27;21.75;;;20.73;;
42296;SDS011;28985;47.456;19.016;2022-08-19T10:41:56;23.15;;;21.92;;
42296;SDS011;28985;47.456;19.016;2022-08-19T10:44:23;24.77;;;23.45;;
42296;SDS011;28985;47.456;19.016;2022-08-19T10:46:57;22.60;;;21.48;;
42296;SDS011;28985;47.456;19.016;2022-08-19T10:49:25;24.02;;;22.75;;
42296;SDS011;28985;47.456;19.016;2022-08-19T10:51:53;26.38;;;24.98;;
42296;SDS011;28985;47.456;19.016;2022-08-19T10:54:45;26.73;;;25.58;;
42296;SDS011;28985;47.456;19.016;2022-08-19T10:57:33;28.30;;;26.90;;
42296;SDS011;28985;47.456;19.016;2022-08-19T11:00:21;30.48;;;29.08;;
42296;SDS011;28985;47.456;19.016;2022-08-19T11:02:49;31.23;;;29.92;;
42296;SDS011;28985;47.456;19.016;2022-08-19T11:05:16;31.17;;;29.58;;
42296;SDS011;28985;47.456;19.016;2022-08-19T11:07:43;32.20;;;30.50;;
42296;SDS011;28985;47.456;19.016;2022-08-19T11:10:11;31.88;;;30.38;;
42296;SDS011;28985;47.456;19.016;2022-08-19T11:12:46;33.38;;;31.50;;
42296;SDS011;28985;47.456;19.016;2022-08-19T11:15:13;31.15;;;29.48;;
42296;SDS011;28985;47.456;19.016;2022-08-19T11:17:40;28.13;;;26.38;;
42296;SDS011;28985;47.456;19.016;2022-08-19T11:20:08;27.63;;;26.35;;
42296;SDS011;28985;47.456;19.016;2022-08-19T11:22:36;26.40;;;25.00;;
42296;SDS011;28985;47.456;19.016;2022-08-19T11:25:07;26.23;;;24.83;;
42296;SDS011;28985;47.456;19.016;2022-08-19T11:27:39;25.17;;;24.05;;
42296;SDS011;28985;47.456;19.016;2022-08-19T11:30:09;29.33;;;27.63;;
42296;SDS011;28985;47.456;19.016;2022-08-19T11:32:39;23.98;;;22.73;;
42296;SDS011;28985;47.456;19.016;2022-08-19T11:35:14;23.40;;;21.88;;
42296;SDS011;28985;47.456;19.016;2022-08-19T11:37:42;25.10;;;23.80;;
42296;SDS011;28985;47.456;19.016;2022-08-19T11:40:08;21.63;;;20.63;;
42296;SDS011;28985;47.456;19.016;2022-08-19T11:42:36;23.00;;;21.35;;
42296;SDS011;28985;47.456;19.016;2022-08-19T11:45:25;24.40;;;22.45;;
42296;SDS011;28985;47.456;19.016;2022-08-19T11:47:54;25.70;;;24.30;;
42296;SDS011;28985;47.456;19.016;2022-08-19T11:50:21;26.38;;;24.63;;
42296;SDS011;28985;47.456;19.016;2022-08-19T11:52:49;27.77;;;25.92;;
42296;SDS011;28985;47.456;19.016;2022-08-19T11:55:16;27.30;;;25.30;;
42296;SDS011;28985;47.456;19.016;2022-08-19T11:57:43;24.67;;;23.27;;
42296;SDS011;28985;47.456;19.016;2022-08-19T12:00:10;26.70;;;24.88;;
42296;SDS011;28985;47.456;19.016;2022-08-19T12:02:39;26.35;;;24.27;;
42296;SDS011;28985;47.456;19.016;2022-08-19T12:05:06;26.48;;;24.95;;
42296;SDS011;28985;47.456;19.016;2022-08-19T12:07:37;27.00;;;25.25;;
42296;SDS011;28985;47.456;19.016;2022-08-19T12:10:04;28.83;;;26.77;;
42296;SDS011;28985;47.456;19.016;2022-08-19T12:12:33;26.15;;;24.55;;
42296;SDS011;28985;47.456;19.016;2022-08-19T12:15:00;25.52;;;23.88;;
42296;SDS011;28985;47.456;19.016;2022-08-19T12:17:27;25.48;;;24.10;;
42296;SDS011;28985;47.456;19.016;2022-08-19T12:19:54;26.52;;;24.75;;
42296;SDS011;28985;47.456;19.016;2022-08-19T12:22:20;26.05;;;24.38;;
42296;SDS011;28985;47.456;19.016;2022-08-19T12:24:47;25.73;;;24.17;;
42296;SDS011;28985;47.456;19.016;2022-08-19T12:27:16;25.67;;;24.08;;
42296;SDS011;28985;47.456;19.016;2022-08-19T12:30:03;27.25;;;25.50;;
42296;SDS011;28985;47.456;19.016;2022-08-19T12:32:31;25.75;;;24.38;;
42296;SDS011;28985;47.456;19.016;2022-08-19T12:34:58;26.77;;;24.80;;
42296;SDS011;28985;47.456;19.016;2022-08-19T12:37:24;28.17;;;26.60;;
42296;SDS011;28985;47.456;19.016;2022-08-19T12:39:51;27.10;;;25.10;;
42296;SDS011;28985;47.456;19.016;2022-08-19T12:42:17;25.50;;;23.80;;
42296;SDS011;28985;47.456;19.016;2022-08-19T12:44:44;27.02;;;25.45;;
42296;SDS011;28985;47.456;19.016;2022-08-19T12:47:12;26.55;;;24.77;;
42296;SDS011;28985;47.456;19.016;2022-08-19T12:49:41;28.60;;;26.73;;
42296;SDS011;28985;47.456;19.016;2022-08-19T12:52:21;27.50;;;25.90;;
42296;SDS011;28985;47.456;19.016;2022-08-19T12:54:50;28.92;;;27.15;;
42296;SDS011;28985;47.456;19.016;2022-08-19T12:57:20;29.70;;;27.90;;
42296;SDS011;28985;47.456;19.016;2022-08-19T12:59:58;28.83;;;27.10;;
42296;SDS011;28985;47.456;19.016;2022-08-19T13:02:41;30.05;;;28.25;;
42296;SDS011;28985;47.456;19.016;2022-08-19T13:05:11;29.38;;;27.40;;
42296;SDS011;28985;47.456;19.016;2022-08-19T13:07:42;27.23;;;25.73;;
42296;SDS011;28985;47.456;19.016;2022-08-19T13:10:13;23.17;;;21.83;;
42296;SDS011;28985;47.456;19.016;2022-08-19T13:12:42;22.75;;;21.25;;
42296;SDS011;28985;47.456;19.016;2022-08-19T13:15:14;22.27;;;20.92;;
42296;SDS011;28985;47.456;19.016;2022-08-19T13:17:50;22.70;;;21.08;;
42296;SDS011;28985;47.456;19.016;2022-08-19T13:20:19;22.33;;;20.80;;
42296;SDS011;28985;47.456;19.016;2022-08-19T13:22:47;24.42;;;22.95;;
42296;SDS011;28985;47.456;19.016;2022-08-19T13:25:15;23.40;;;22.27;;
42296;SDS011;28985;47.456;19.016;2022-08-19T13:27:43;22.02;;;20.88;;
42296;SDS011;28985;47.456;19.016;2022-08-19T13:30:11;22.90;;;21.55;;
42296;SDS011;28985;47.456;19.016;2022-08-19T13:32:58;24.40;;;23.08;;
42296;SDS011;28985;47.456;19.016;2022-08-19T13:38:11;22.98;;;21.70;;
42296;SDS011;28985;47.456;19.016;2022-08-19T13:40:39;23.73;;;22.33;;
42296;SDS011;28985;47.456;19.016;2022-08-19T13:43:07;22.70;;;21.50;;
42296;SDS011;28985;47.456;19.016;2022-08-19T13:45:48;25.42;;;23.92;;
42296;SDS011;28985;47.456;19.016;2022-08-19T13:48:14;24.67;;;22.92;;
42296;SDS011;28985;47.456;19.016;2022-08-19T13:50:42;24.75;;;22.92;;
42296;SDS011;28985;47.456;19.016;2022-08-19T13:53:11;26.65;;;24.50;;
42296;SDS011;28985;47.456;19.016;2022-08-19T13:55:38;63.33;;;40.92;;
42296;SDS011;28985;47.456;19.016;2022-08-19T13:58:08;30.60;;;26.35;;
42296;SDS011;28985;47.456;19.016;2022-08-19T14:00:38;25.25;;;23.05;;
42296;SDS011;28985;47.456;19.016;2022-08-19T14:03:07;25.33;;;22.05;;
42296;SDS011;28985;47.456;19.016;2022-08-19T14:05:34;29.27;;;27.23;;
42296;SDS011;28985;47.456;19.016;2022-08-19T14:08:01;30.80;;;28.02;;
42296;SDS011;28985;47.456;19.016;2022-08-19T14:10:28;42.03;;;39.30;;
42296;SDS011;28985;47.456;19.016;2022-08-19T14:12:58;50.58;;;47.53;;
42296;SDS011;28985;47.456;19.016;2022-08-19T14:15:27;64.65;;;61.13;;
42296;SDS011;28985;47.456;19.016;2022-08-19T14:17:55;68.82;;;65.32;;
42296;SDS011;28985;47.456;19.016;2022-08-19T14:20:22;67.05;;;64.05;;
42296;SDS011;28985;47.456;19.016;2022-08-19T14:22:51;77.45;;;74.20;;
42296;SDS011;28985;47.456;19.016;2022-08-19T14:25:20;60.55;;;57.38;;
42296;SDS011;28985;47.456;19.016;2022-08-19T14:27:49;53.03;;;50.40;;
42296;SDS011;28985;47.456;19.016;2022-08-19T14:30:18;52.00;;;48.97;;
42296;SDS011;28985;47.456;19.016;2022-08-19T14:32:48;58.60;;;55.05;;
42296;SDS011;28985;47.456;19.016;2022-08-19T14:35:14;67.18;;;63.60;;